Time;durP1;ratioP1;P1;durP2;ratioP2;P2;SDS_P1;SDS_P2;PMS_P1;PMS_P2;Temp;Humidity;BMP_temperature;BMP_pressure;BME280_temperature;BME280_humidity;BME280_pressure;Samples;Min_cycle;Max_cycle;Signal;HPM_P1;HPM_P2
2022/06/25 00:00:56;;;;;;;0.10;0.10;;;;;;;27.65;46.48;99006.69;5109895;28;20048;-59
2022/06/25 00:03:22;;;;;;;0.10;0.10;;;;;;;27.62;46.44;99004.72;5109965;28;20044;-59
2022/06/25 00:05:47;;;;;;;0.20;0.20;;;;;;;27.64;46.25;99004.28;5110030;28;20123;-59
2022/06/25 00:08:13;;;;;;;0.45;0.20;;;;;;;27.64;46.36;98998.66;5109870;28;20036;-59
2022/06/25 00:10:38;;;;;;;0.10;0.10;;;;;;;27.63;46.36;99002.69;5110074;28;20055;-59
2022/06/25 00:13:04;;;;;;;1.52;0.15;;;;;;;27.65;46.45;98994.66;5109762;28;20403;-58
2022/06/25 00:15:29;;;;;;;0.20;0.20;;;;;;;27.63;46.31;98997.88;5110100;28;20040;-59
2022/06/25 00:17:54;;;;;;;2.30;0.10;;;;;;;27.63;46.45;98997.88;5109709;28;20032;-59
2022/06/25 00:20:20;;;;;;;1.33;0.17;;;;;;;27.64;46.48;98993.03;5109638;28;20035;-59
2022/06/25 00:22:46;;;;;;;0.20;0.20;;;;;;;27.63;46.20;98999.88;5109804;28;20044;-59
2022/06/25 00:25:11;;;;;;;0.20;0.20;;;;;;;27.63;46.30;98997.09;5109698;28;20044;-59
2022/06/25 00:27:37;;;;;;;0.17;0.17;;;;;;;27.62;46.28;99001.13;5109629;28;20040;-58
2022/06/25 00:30:07;;;;;;;0.20;0.15;;;;;;;27.60;46.32;98992.34;5109818;28;20051;-59
2022/06/25 00:32:33;;;;;;;0.20;0.13;;;;;;;27.60;45.91;98997.97;5109651;28;20104;-59
2022/06/25 00:34:58;;;;;;;0.10;0.10;;;;;;;27.62;46.04;99001.13;5109851;28;20051;-58
2022/06/25 00:37:24;;;;;;;0.20;0.20;;;;;;;27.59;46.11;99002.78;5109390;28;20043;-59
2022/06/25 00:39:50;;;;;;;0.30;0.25;;;;;;;27.61;45.80;99005.16;5109551;28;20047;-59
2022/06/25 00:42:16;;;;;;;0.30;0.20;;;;;;;27.62;45.87;99003.94;5109778;28;20528;-58
2022/06/25 00:44:42;;;;;;;0.40;0.13;;;;;;;27.59;46.07;99008.41;5109587;28;20036;-59
2022/06/25 00:47:11;;;;;;;0.25;0.20;;;;;;;27.61;45.91;99005.16;5109606;28;20130;-59
2022/06/25 00:49:37;;;;;;;0.28;0.28;;;;;;;27.59;45.91;99005.59;5109377;28;20062;-59
2022/06/25 00:52:06;;;;;;;0.20;0.20;;;;;;;27.60;45.89;98998.75;5109425;28;20474;-58
2022/06/25 00:54:35;;;;;;;0.10;0.10;;;;;;;27.59;45.86;98999.97;5109423;28;20118;-59
2022/06/25 00:57:04;;;;;;;0.10;0.10;;;;;;;27.59;45.99;98996.38;5109239;28;20112;-59
2022/06/25 00:59:36;;;;;;;0.10;0.10;;;;;;;27.59;45.78;98993.56;5109262;28;20044;-59
2022/06/25 01:02:02;;;;;;;0.13;0.10;;;;;;;27.59;45.83;98999.19;5109458;28;20051;-59
2022/06/25 01:04:29;;;;;;;0.43;0.20;;;;;;;27.58;45.71;98997.59;5109019;28;20071;-58
2022/06/25 01:06:54;;;;;;;0.10;0.10;;;;;;;27.59;45.70;98999.19;5109225;28;20055;-59
2022/06/25 01:09:19;;;;;;;0.20;0.20;;;;;;;27.58;45.58;99000.41;5110080;28;20040;-59
2022/06/25 01:11:45;;;;;;;0.17;0.10;;;;;;;27.57;45.70;98996.78;5112458;28;20423;-58
2022/06/25 01:14:11;;;;;;;0.10;0.10;;;;;;;27.57;45.77;99005.22;5112694;28;20415;-59
2022/06/25 01:16:37;;;;;;;0.20;0.10;;;;;;;27.57;45.64;99002.41;5112635;28;20521;-59
2022/06/25 01:19:07;;;;;;;0.10;0.10;;;;;;;27.59;45.65;98999.19;5112253;28;20097;-59
2022/06/25 01:21:33;;;;;;;0.20;0.17;;;;;;;27.57;45.69;98999.59;5112512;28;20050;-59
2022/06/25 01:23:59;;;;;;;0.43;0.20;;;;;;;27.58;45.59;99006.81;5112701;28;20123;-59
2022/06/25 01:26:25;;;;;;;0.10;0.10;;;;;;;27.57;45.42;99004.41;5112666;28;20040;-59
2022/06/25 01:28:50;;;;;;;0.20;0.20;;;;;;;27.56;45.71;99000.81;5112204;28;20084;-59
2022/06/25 01:31:16;;;;;;;0.10;0.10;;;;;;;27.56;45.52;98989.59;5112439;28;20380;-58
2022/06/25 01:33:41;;;;;;;0.20;0.20;;;;;;;27.56;45.47;98986.78;5112494;28;20089;-59
2022/06/25 01:36:06;;;;;;;0.20;0.20;;;;;;;27.55;45.73;98995.66;5112183;28;20502;-59
2022/06/25 01:38:32;;;;;;;0.22;0.20;;;;;;;27.55;45.36;98990.81;5111954;28;20042;-59
2022/06/25 01:40:57;;;;;;;0.20;0.20;;;;;;;27.56;45.39;98988.78;5112243;28;20047;-59
2022/06/25 01:43:22;;;;;;;0.20;0.20;;;;;;;27.56;45.53;98991.59;5112102;28;20075;-59
2022/06/25 01:45:48;;;;;;;0.20;0.10;;;;;;;27.56;45.46;98985.97;5112099;28;20940;-59
2022/06/25 01:48:13;;;;;;;0.10;0.10;;;;;;;27.55;45.23;98981.59;5111894;28;20562;-59
2022/06/25 01:50:39;;;;;;;0.10;0.10;;;;;;;27.55;45.38;98973.16;5112086;28;20095;-59
2022/06/25 01:53:05;;;;;;;0.17;0.17;;;;;;;27.55;45.48;98973.16;5112006;28;20052;-58
2022/06/25 01:55:32;;;;;;;0.10;0.10;;;;;;;27.55;45.21;98981.59;5112080;28;20507;-59
2022/06/25 01:57:58;;;;;;;0.25;0.10;;;;;;;27.54;45.35;98977.19;5111899;28;20456;-59
2022/06/25 02:00:27;;;;;;;0.25;0.20;;;;;;;27.54;45.38;98975.19;5111527;28;20082;-59
2022/06/25 02:02:53;;;;;;;0.10;0.10;;;;;;;27.54;45.42;98975.19;5111468;28;20059;-59
2022/06/25 02:08:08;;;;;;;0.63;0.20;;;;;;;27.53;45.42;98970.78;5111983;28;20496;-58
2022/06/25 02:10:34;;;;;;;0.25;0.10;;;;;;;27.52;45.34;98969.22;5111221;28;20043;-59
2022/06/25 02:12:59;;;;;;;0.10;0.10;;;;;;;27.53;45.35;98970.78;5130608;28;20050;-59
2022/06/25 02:15:25;;;;;;;0.15;0.10;;;;;;;27.53;45.36;98970.00;5132366;28;20078;-58
2022/06/25 02:17:50;;;;;;;0.25;0.20;;;;;;;27.53;45.28;98976.41;5132178;28;20065;-59
2022/06/25 02:20:16;;;;;;;0.28;0.20;;;;;;;27.54;45.05;98977.19;5123289;28;20043;-59
2022/06/25 02:22:41;;;;;;;0.20;0.20;;;;;;;27.51;45.27;98970.44;5111038;27;20093;-59
2022/06/25 02:25:07;;;;;;;0.30;0.20;;;;;;;27.52;45.08;98971.22;5111534;28;20514;-59
2022/06/25 02:27:34;;;;;;;0.20;0.20;;;;;;;27.52;45.13;98968.44;5111981;27;20044;-58
2022/06/25 02:29:59;;;;;;;0.20;0.20;;;;;;;27.51;45.04;98976.06;5111160;28;20105;-58
2022/06/25 02:32:25;;;;;;;0.25;0.20;;;;;;;27.52;45.13;98971.22;5111321;27;20044;-59
2022/06/25 02:34:50;;;;;;;0.20;0.20;;;;;;;27.52;45.05;98974.03;5111395;27;20054;-59
2022/06/25 02:37:16;;;;;;;1.85;0.20;;;;;;;27.52;45.19;98969.22;5111230;28;20044;-59
2022/06/25 02:39:41;;;;;;;0.20;0.10;;;;;;;27.52;45.27;98969.22;5110868;27;20039;-59
2022/06/25 02:42:07;;;;;;;0.50;0.22;;;;;;;27.52;45.05;98969.22;5111292;27;20048;-59
2022/06/25 02:44:32;;;;;;;1.30;0.20;;;;;;;27.50;45.09;98966.03;5111405;27;20646;-58
2022/06/25 02:46:58;;;;;;;0.28;0.20;;;;;;;27.50;45.08;98976.47;5111154;27;20047;-59
2022/06/25 02:49:23;;;;;;;0.55;0.30;;;;;;;27.48;45.29;98964.88;5111007;28;20104;-59
2022/06/25 02:51:49;;;;;;;0.20;0.20;;;;;;;27.51;45.05;98973.25;5111089;27;20137;-59
2022/06/25 02:54:14;;;;;;;0.35;0.20;;;;;;;27.49;45.21;98972.88;5111104;28;20043;-59
2022/06/25 02:59:23;;;;;;;0.20;0.20;;;;;;;27.49;45.01;98966.47;5111015;28;20055;-58
2022/06/25 03:01:49;;;;;;;0.20;0.20;;;;;;;27.49;45.03;98969.28;5110865;27;20043;-59
2022/06/25 03:04:15;;;;;;;0.20;0.20;;;;;;;27.49;45.10;98966.47;5110856;27;20047;-59
2022/06/25 03:06:40;;;;;;;0.88;0.20;;;;;;;27.49;45.08;98964.44;5110817;28;20463;-59
2022/06/25 03:09:06;;;;;;;0.90;0.22;;;;;;;27.49;44.77;98960.84;5111074;28;20048;-59
2022/06/25 03:11:32;;;;;;;0.10;0.10;;;;;;;27.47;45.12;98963.28;5110654;27;20487;-59
2022/06/25 03:13:58;;;;;;;0.20;0.20;;;;;;;27.47;45.11;98966.09;5111004;28;20043;-58
2022/06/25 03:16:23;;;;;;;0.30;0.10;;;;;;;27.48;45.07;98965.66;5110817;27;20076;-59
2022/06/25 03:18:50;;;;;;;0.20;0.20;;;;;;;27.47;45.08;98964.09;5110498;27;20047;-58
2022/06/25 03:21:16;;;;;;;0.10;0.10;;;;;;;27.48;44.95;98954.44;5110413;28;20051;-58
2022/06/25 03:23:41;;;;;;;0.28;0.20;;;;;;;27.46;45.08;98953.28;5110775;28;20040;-58
2022/06/25 03:26:07;;;;;;;0.10;0.10;;;;;;;27.49;45.19;98952.41;5110745;27;20032;-58
2022/06/25 03:28:32;;;;;;;0.43;0.28;;;;;;;27.49;45.03;98958.03;5110646;27;20044;-58
2022/06/25 03:30:58;;;;;;;0.10;0.10;;;;;;;27.48;44.89;98950.84;5110465;28;20055;-58
2022/06/25 03:33:23;;;;;;;0.22;0.20;;;;;;;27.49;45.06;98946.78;5110312;28;20495;-59
2022/06/25 03:35:48;;;;;;;0.30;0.20;;;;;;;27.49;44.80;98943.97;5110551;28;20763;-58
2022/06/25 03:38:14;;;;;;;0.10;0.10;;;;;;;27.49;44.80;98953.22;5110391;27;20039;-58
2022/06/25 03:40:40;;;;;;;0.32;0.20;;;;;;;27.49;44.91;98946.78;5110173;28;20131;-58
2022/06/25 03:43:05;;;;;;;0.30;0.20;;;;;;;27.48;44.82;98946.00;5110204;27;20051;-58
2022/06/25 03:45:30;;;;;;;0.17;0.17;;;;;;;27.49;44.75;98947.59;5110233;27;20047;-59
2022/06/25 03:47:56;;;;;;;0.10;0.10;;;;;;;27.48;44.84;98948.03;5110261;27;20245;-58
2022/06/25 03:50:22;;;;;;;0.28;0.20;;;;;;;27.46;44.84;98950.47;5110099;27;20047;-58
2022/06/25 03:52:48;;;;;;;0.32;0.20;;;;;;;27.48;44.73;98956.44;5110323;28;20073;-59
2022/06/25 03:55:14;;;;;;;0.25;0.20;;;;;;;27.47;44.70;98958.47;5110481;27;20505;-58
2022/06/25 03:57:40;;;;;;;0.20;0.20;;;;;;;27.48;44.59;98971.28;5110054;28;20044;-58
2022/06/25 04:00:07;;;;;;;0.10;0.10;;;;;;;27.46;44.95;98964.53;5110113;27;20138;-58
2022/06/25 04:02:33;;;;;;;0.17;0.15;;;;;;;27.47;44.71;98963.28;5109581;28;20126;-58
2022/06/25 04:04:59;;;;;;;0.52;0.28;;;;;;;27.46;44.70;98970.94;5110093;28;20519;-58
2022/06/25 04:07:24;;;;;;;0.30;0.20;;;;;;;27.46;44.66;98970.16;5110084;28;20450;-58
2022/06/25 04:09:50;;;;;;;0.10;0.10;;;;;;;27.46;44.91;98968.13;5110038;27;20459;-58
2022/06/25 04:12:16;;;;;;;0.20;0.20;;;;;;;27.46;44.72;98973.75;5109711;27;20044;-58
2022/06/25 04:14:41;;;;;;;0.17;0.10;;;;;;;27.46;44.58;98964.53;5109959;28;20100;-59
2022/06/25 04:17:07;;;;;;;0.10;0.10;;;;;;;27.45;44.86;98965.75;5109913;27;20118;-58
2022/06/25 04:19:40;;;;;;;0.40;0.20;;;;;;;27.45;44.93;98958.13;5109905;27;20131;-59
2022/06/25 04:22:12;;;;;;;0.10;0.10;;;;;;;27.44;44.66;98959.34;5109578;28;20044;-58
2022/06/25 04:24:39;;;;;;;0.25;0.20;;;;;;;27.46;44.92;98950.47;5109813;27;20048;-58
2022/06/25 04:27:05;;;;;;;0.40;0.30;;;;;;;27.42;44.93;98961.78;5109840;27;20051;-58
2022/06/25 04:29:31;;;;;;;0.15;0.15;;;;;;;27.41;44.98;98963.78;5110413;27;20126;-59
2022/06/25 04:31:56;;;;;;;0.10;0.10;;;;;;;27.45;45.04;98958.13;5110344;27;20123;-59
2022/06/25 04:34:22;;;;;;;0.22;0.20;;;;;;;27.45;45.00;98952.50;5110775;28;20048;-59
2022/06/25 04:36:48;;;;;;;0.28;0.20;;;;;;;27.48;44.99;98954.44;5110200;27;20404;-58
2022/06/25 04:39:13;;;;;;;0.20;0.20;;;;;;;27.47;45.13;98952.06;5109687;27;20058;-58
2022/06/25 04:41:39;;;;;;;0.10;0.10;;;;;;;27.47;44.98;98949.25;5109431;28;20052;-58
2022/06/25 04:44:05;;;;;;;0.20;0.20;;;;;;;27.46;45.11;98947.66;5110544;28;20082;-58
2022/06/25 04:46:30;;;;;;;0.65;0.30;;;;;;;27.45;45.23;98949.69;5113312;27;20054;-58
2022/06/25 04:48:56;;;;;;;0.17;0.17;;;;;;;27.46;45.05;98950.47;5113075;28;20092;-59
2022/06/25 04:51:22;;;;;;;0.20;0.20;;;;;;;27.45;44.99;98944.06;5112765;28;20071;-59
2022/06/25 04:53:57;;;;;;;0.10;0.10;;;;;;;27.44;45.13;98945.31;5113214;28;20071;-58
2022/06/25 04:56:27;;;;;;;0.20;0.10;;;;;;;27.47;45.10;98954.88;5113038;27;20040;-58
2022/06/25 04:58:53;;;;;;;0.20;0.20;;;;;;;27.45;45.21;98948.91;5112965;28;20040;-58
2022/06/25 05:01:19;;;;;;;0.40;0.20;;;;;;;27.47;44.87;98954.88;5113065;27;20059;-58
2022/06/25 05:03:44;;;;;;;0.20;0.20;;;;;;;27.47;45.03;98952.84;5112558;27;20043;-58
2022/06/25 05:06:10;;;;;;;0.20;0.15;;;;;;;27.47;45.04;98957.69;5113029;28;20043;-58
2022/06/25 05:08:36;;;;;;;0.20;0.20;;;;;;;27.47;45.00;98954.88;5112948;27;20105;-59
2022/06/25 05:11:02;;;;;;;0.20;0.10;;;;;;;27.48;44.92;98953.63;5112782;28;20505;-59
2022/06/25 05:13:27;;;;;;;0.10;0.10;;;;;;;27.49;44.86;98952.41;5112487;27;20461;-58
2022/06/25 05:15:53;;;;;;;0.22;0.20;;;;;;;27.48;45.11;98953.63;5112843;28;20036;-58
2022/06/25 05:18:18;;;;;;;0.10;0.10;;;;;;;27.47;45.34;98944.44;5112863;27;20088;-58
2022/06/25 05:20:44;;;;;;;0.20;0.20;;;;;;;27.49;45.02;98952.41;5112726;28;20044;-58
2022/06/25 05:23:11;;;;;;;0.10;0.10;;;;;;;27.47;45.19;98947.22;5112390;28;20104;-58
2022/06/25 05:25:36;;;;;;;0.25;0.20;;;;;;;27.47;45.03;98949.25;5112707;27;20050;-58
2022/06/25 05:28:03;;;;;;;0.10;0.10;;;;;;;27.49;44.96;98949.59;5112870;28;20048;-58
2022/06/25 05:30:29;;;;;;;0.20;0.20;;;;;;;27.49;44.93;98953.22;5112469;28;20502;-59
2022/06/25 05:32:54;;;;;;;0.20;0.15;;;;;;;27.46;44.99;98951.28;5111912;27;20461;-59
2022/06/25 05:35:20;;;;;;;0.28;0.20;;;;;;;27.49;45.21;98946.78;5112364;28;20039;-59
2022/06/25 05:37:45;;;;;;;0.57;0.20;;;;;;;27.47;45.21;98946.44;5112153;27;20051;-59
2022/06/25 05:40:11;;;;;;;0.10;0.10;;;;;;;27.49;45.21;98952.41;5112324;28;20052;-59
2022/06/25 05:42:37;;;;;;;0.10;0.10;;;;;;;27.49;45.26;98949.59;5111953;27;20047;-59
2022/06/25 05:45:03;;;;;;;0.57;0.35;;;;;;;27.49;44.96;98946.78;5107806;28;20051;-59
2022/06/25 05:47:29;;;;;;;0.30;0.30;;;;;;;27.51;45.18;98952.78;5112145;27;20051;-59
2022/06/25 05:49:54;;;;;;;0.40;0.20;;;;;;;27.50;45.04;98951.19;5114264;27;20039;-59
2022/06/25 05:52:20;;;;;;;0.20;0.20;;;;;;;27.52;44.91;98948.75;5112032;27;20128;-59
2022/06/25 05:54:45;;;;;;;0.30;0.20;;;;;;;27.51;45.04;98950.00;5111735;27;20176;-59
2022/06/25 05:57:11;;;;;;;0.10;0.10;;;;;;;27.50;45.16;98949.16;5118921;27;20506;-58
2022/06/25 05:59:36;;;;;;;0.20;0.20;;;;;;;27.52;45.04;98946.75;5132552;27;20095;-59
2022/06/25 06:02:02;;;;;;;0.20;0.20;;;;;;;27.51;44.94;98947.19;5132537;28;20070;-58
2022/06/25 06:04:27;;;;;;;0.10;0.10;;;;;;;27.52;45.01;98951.56;5132432;27;20406;-59
2022/06/25 06:06:53;;;;;;;0.20;0.20;;;;;;;27.46;45.25;98945.66;5132328;27;20367;-58
2022/06/25 06:09:19;;;;;;;0.20;0.20;;;;;;;27.37;45.35;98948.25;5132236;27;20115;-58
2022/06/25 06:11:44;;;;;;;0.32;0.22;;;;;;;27.31;45.67;98942.34;5132443;28;20128;-59
2022/06/25 06:14:09;;;;;;;0.08;0.08;;;;;;;27.26;45.82;98937.22;5132092;27;20058;-59
2022/06/25 06:16:35;;;;;;;0.13;0.10;;;;;;;27.23;45.67;98938.09;5132305;27;20130;-58
2022/06/25 06:19:01;;;;;;;0.30;0.25;;;;;;;27.21;45.78;98934.88;5132251;27;20445;-60
2022/06/25 06:21:26;;;;;;;0.70;0.38;;;;;;;27.14;46.09;98930.19;5132070;28;20050;-58
2022/06/25 06:23:51;;;;;;;0.40;0.30;;;;;;;27.11;46.15;98927.47;5131645;27;20039;-58
2022/06/25 06:26:17;;;;;;;0.32;0.20;;;;;;;27.11;46.32;98938.69;5131842;27;20559;-59
2022/06/25 06:28:43;;;;;;;0.20;0.20;;;;;;;27.09;46.25;98927.91;5131896;27;20486;-59
2022/06/25 06:31:09;;;;;;;0.25;0.22;;;;;;;27.10;46.24;98926.69;5131922;27;20337;-58
2022/06/25 06:33:35;;;;;;;0.20;0.20;;;;;;;27.12;46.20;98929.84;5131722;27;20505;-59
2022/06/25 06:36:01;;;;;;;0.45;0.30;;;;;;;27.12;46.11;98929.06;5131887;27;20058;-59
2022/06/25 06:38:26;;;;;;;0.17;0.17;;;;;;;27.09;46.17;98921.50;5132028;27;20051;-59
2022/06/25 06:40:52;;;;;;;0.22;0.20;;;;;;;27.08;46.29;98928.34;5131868;27;20390;-59
2022/06/25 06:43:17;;;;;;;0.25;0.20;;;;;;;27.09;46.44;98925.09;5131799;28;20124;-58
2022/06/25 06:45:42;;;;;;;0.20;0.20;;;;;;;27.11;46.20;98921.84;5131868;27;20459;-58
2022/06/25 06:48:08;;;;;;;0.40;0.30;;;;;;;27.14;46.51;98920.97;5131762;28;20042;-58
2022/06/25 06:50:33;;;;;;;0.20;0.20;;;;;;;27.14;46.31;98927.38;5131643;27;20053;-58
2022/06/25 06:52:59;;;;;;;0.20;0.20;;;;;;;27.18;46.34;98935.75;5131575;27;20031;-58
2022/06/25 06:55:24;;;;;;;0.28;0.20;;;;;;;27.18;46.02;98927.34;5131353;27;20043;-58
2022/06/25 06:57:49;;;;;;;0.32;0.30;;;;;;;27.12;46.23;98929.06;5131768;28;20562;-58
2022/06/25 07:00:17;;;;;;;0.30;0.20;;;;;;;27.13;46.16;98927.81;5131556;27;20061;-58
2022/06/25 07:02:42;;;;;;;0.20;0.20;;;;;;;27.11;46.49;98928.25;5131512;27;20051;-58
2022/06/25 07:05:08;;;;;;;0.30;0.30;;;;;;;27.14;46.23;98921.78;5131427;27;20410;-58
2022/06/25 07:07:34;;;;;;;0.20;0.20;;;;;;;27.15;46.35;98925.41;5130638;27;20091;-58
2022/06/25 07:09:59;;;;;;;0.20;0.20;;;;;;;27.18;46.34;98916.09;5131460;27;20051;-59
2022/06/25 07:12:24;;;;;;;0.25;0.20;;;;;;;27.20;46.07;98918.47;5131392;27;20054;-58
2022/06/25 07:14:50;;;;;;;0.30;0.30;;;;;;;27.23;46.10;98917.63;5095864;28;20399;-58
2022/06/25 07:17:15;;;;;;;1.02;0.20;;;;;;;27.23;46.35;98910.00;5131492;28;20502;-58
2022/06/25 07:19:41;;;;;;;0.30;0.30;;;;;;;27.21;46.34;98911.63;5131194;27;20050;-58
2022/06/25 07:22:06;;;;;;;0.10;0.10;;;;;;;27.21;46.30;98906.03;5131194;27;20488;-59
2022/06/25 07:24:31;;;;;;;0.20;0.20;;;;;;;27.20;46.22;98910.06;5130998;27;20051;-58
2022/06/25 07:26:57;;;;;;;0.20;0.20;;;;;;;27.21;45.87;98904.00;5131236;28;20066;-59
2022/06/25 07:29:22;;;;;;;0.20;0.20;;;;;;;27.19;46.29;98900.84;5131116;27;20540;-59
2022/06/25 07:31:48;;;;;;;0.20;0.20;;;;;;;27.18;46.04;98893.66;5131110;27;20054;-59
2022/06/25 07:34:14;;;;;;;0.15;0.15;;;;;;;27.22;46.16;98899.19;5130863;27;20049;-59
2022/06/25 07:36:40;;;;;;;0.20;0.20;;;;;;;27.22;46.00;98891.56;5131185;27;20039;-58
2022/06/25 07:39:08;;;;;;;0.30;0.20;;;;;;;27.19;46.04;98889.63;5130691;27;20055;-59
2022/06/25 07:41:34;;;;;;;0.20;0.20;;;;;;;27.18;45.78;98888.03;5130813;28;20058;-58
2022/06/25 07:43:59;;;;;;;0.30;0.20;;;;;;;27.21;45.78;98889.97;5130759;27;20043;-59
2022/06/25 07:46:25;;;;;;;0.17;0.17;;;;;;;27.23;46.03;98890.34;5130671;28;20031;-59
2022/06/25 07:48:50;;;;;;;0.15;0.15;;;;;;;27.22;45.76;98885.97;5130788;27;20039;-59
2022/06/25 07:53:59;;;;;;;0.10;0.10;;;;;;;27.19;45.78;98878.38;5129389;28;20513;-59
2022/06/25 07:56:25;;;;;;;0.20;0.20;;;;;;;27.19;45.65;98875.56;5130550;27;20043;-59
2022/06/25 07:58:50;;;;;;;0.30;0.20;;;;;;;27.18;45.67;98881.63;5130686;28;20107;-59
2022/06/25 08:01:16;;;;;;;0.40;0.20;;;;;;;27.20;45.56;98873.56;5130523;28;20044;-59
2022/06/25 08:03:41;;;;;;;0.20;0.20;;;;;;;27.21;45.73;98877.94;5130595;27;20085;-59
2022/06/25 08:06:07;;;;;;;0.30;0.30;;;;;;;27.21;45.95;98870.31;5130558;28;20154;-59
2022/06/25 08:08:32;;;;;;;0.20;0.20;;;;;;;27.21;45.54;98872.31;5130564;27;20067;-59
2022/06/25 08:10:58;;;;;;;0.52;0.30;;;;;;;27.20;45.63;98863.13;5130296;27;20047;-59
2022/06/25 08:13:24;;;;;;;0.30;0.30;;;;;;;27.22;45.44;98859.88;5130422;27;20043;-59
2022/06/25 08:15:50;;;;;;;0.20;0.20;;;;;;;27.26;45.39;98860.59;5130010;27;20047;-59
2022/06/25 08:18:16;;;;;;;0.35;0.30;;;;;;;27.22;45.65;98851.44;5130270;27;20039;-58
2022/06/25 08:20:42;;;;;;;0.40;0.30;;;;;;;27.23;45.53;98856.66;5133472;27;20043;-59
2022/06/25 08:23:07;;;;;;;0.30;0.10;;;;;;;27.21;45.62;98856.28;5134030;28;20084;-59
2022/06/25 08:25:32;;;;;;;0.20;0.20;;;;;;;27.21;45.45;98859.06;5133887;27;20046;-59
2022/06/25 08:27:58;;;;;;;0.25;0.20;;;;;;;27.24;45.80;98843.41;5133854;28;20039;-59
2022/06/25 08:30:25;;;;;;;0.30;0.30;;;;;;;27.23;45.58;98841.81;5133900;27;20051;-59
2022/06/25 08:32:51;;;;;;;0.63;0.30;;;;;;;27.28;45.56;98842.09;5133606;27;20044;-58
2022/06/25 08:35:17;;;;;;;0.43;0.30;;;;;;;27.26;45.54;98838.13;5133493;28;20047;-58
2022/06/25 08:37:44;;;;;;;0.40;0.30;;;;;;;27.28;45.79;98841.28;5133895;28;20047;-59
2022/06/25 08:40:11;;;;;;;0.20;0.20;;;;;;;27.28;45.64;98839.28;5133805;27;20095;-59
2022/06/25 08:42:37;;;;;;;0.55;0.35;;;;;;;27.24;45.55;98827.34;5133442;27;20078;-58
2022/06/25 08:45:03;;;;;;;0.52;0.30;;;;;;;27.30;45.81;98822.81;5133841;27;20079;-59
2022/06/25 08:47:29;;;;;;;0.20;0.20;;;;;;;27.29;45.54;98820.41;5133601;27;20051;-58
2022/06/25 08:49:54;;;;;;;0.20;0.20;;;;;;;27.29;45.72;98823.22;5133754;27;20087;-60
2022/06/25 08:52:21;;;;;;;0.22;0.22;;;;;;;27.28;45.48;98816.03;5133434;27;20050;-58
2022/06/25 08:54:47;;;;;;;0.47;0.30;;;;;;;27.28;45.28;98814.00;5133711;27;20043;-58
2022/06/25 08:57:12;;;;;;;0.20;0.20;;;;;;;27.32;45.45;98805.50;5133292;27;20527;-59
2022/06/25 08:59:38;;;;;;;0.40;0.20;;;;;;;27.34;45.33;98805.88;5133353;28;20054;-59
2022/06/25 09:02:04;;;;;;;0.50;0.35;;;;;;;27.36;45.04;98797.78;5133436;28;20044;-59
2022/06/25 09:04:29;;;;;;;0.30;0.30;;;;;;;27.33;45.06;98788.22;5133255;27;20050;-59
2022/06/25 09:07:17;;;;;;;0.47;0.30;;;;;;;27.33;44.90;98793.84;5133167;27;20514;-59
2022/06/25 09:09:47;;;;;;;0.30;0.30;;;;;;;27.36;44.96;98789.38;5132133;27;20046;-59
2022/06/25 09:12:16;;;;;;;0.70;0.32;;;;;;;27.36;44.35;98781.75;5133128;27;20042;-59
2022/06/25 09:14:42;;;;;;;0.30;0.30;;;;;;;27.38;44.38;98781.31;5133021;27;20050;-59
2022/06/25 09:17:12;;;;;;;0.55;0.35;;;;;;;27.38;44.68;98782.09;5132791;27;20051;-59
2022/06/25 09:19:48;;;;;;;0.22;0.22;;;;;;;27.34;44.69;98775.75;5131336;27;20430;-59
2022/06/25 09:22:22;;;;;;;0.20;0.20;;;;;;;27.34;44.49;98772.94;5131962;27;20075;-59
2022/06/25 09:24:49;;;;;;;0.63;0.40;;;;;;;27.36;44.27;98773.34;5132926;27;20099;-58
2022/06/25 09:27:35;;;;;;;0.17;0.17;;;;;;;27.37;44.44;98760.88;5132528;27;20503;-58
2022/06/25 09:30:12;;;;;;;0.47;0.30;;;;;;;27.38;44.25;98765.25;5132511;27;20384;-58
2022/06/25 09:32:48;;;;;;;0.65;0.20;;;;;;;27.39;44.28;98766.84;5132856;27;20513;-59
2022/06/25 09:35:37;;;;;;;0.20;0.20;;;;;;;27.39;44.18;98768.84;5133227;28;20546;-59
2022/06/25 09:38:12;;;;;;;0.40;0.30;;;;;;;27.42;44.01;98760.34;5133637;27;20070;-59
2022/06/25 09:40:39;;;;;;;0.20;0.20;;;;;;;27.40;44.40;98754.38;5133883;28;20047;-60
2022/06/25 09:43:26;;;;;;;0.20;0.20;;;;;;;27.39;44.23;98754.81;5133245;28;20043;-58
2022/06/25 09:45:54;;;;;;;0.25;0.20;;;;;;;27.40;44.40;98743.13;5132683;27;20129;-59
2022/06/25 09:48:24;;;;;;;0.20;0.20;;;;;;;27.41;44.27;98739.09;5132571;27;20047;-58
2022/06/25 09:51:12;;;;;;;0.20;0.20;;;;;;;27.39;44.38;98735.16;5132960;28;20051;-59
2022/06/25 09:53:48;;;;;;;0.50;0.25;;;;;;;27.39;44.40;98726.72;5133001;28;20047;-58
2022/06/25 09:56:15;;;;;;;0.63;0.30;;;;;;;27.41;44.20;98733.47;5132527;27;20410;-58
2022/06/25 09:58:43;;;;;;;0.47;0.30;;;;;;;27.44;43.92;98726.22;5132537;28;20088;-58
2022/06/25 10:01:08;;;;;;;0.63;0.25;;;;;;;27.40;44.30;98719.88;5132293;27;20035;-58
2022/06/25 10:03:35;;;;;;;0.40;0.30;;;;;;;27.41;44.07;98725.06;5132532;27;20047;-58
2022/06/25 10:06:02;;;;;;;0.30;0.30;;;;;;;27.39;43.83;98719.09;5132543;28;20074;-59
2022/06/25 10:08:29;;;;;;;0.32;0.20;;;;;;;27.42;43.96;98721.00;5132371;28;20448;-59
2022/06/25 10:10:56;;;;;;;0.40;0.20;;;;;;;27.42;44.01;98718.19;5127431;27;21017;-59
2022/06/25 10:13:22;;;;;;;0.52;0.30;;;;;;;27.41;44.03;98707.41;5111870;28;20040;-58
2022/06/25 10:15:49;;;;;;;0.20;0.20;;;;;;;27.43;43.65;98710.56;5111803;28;20048;-59
2022/06/25 10:18:15;;;;;;;0.32;0.30;;;;;;;27.46;43.72;98711.72;5111592;28;20040;-59
2022/06/25 10:20:42;;;;;;;0.32;0.28;;;;;;;27.43;43.82;98708.56;5111792;28;20058;-59
2022/06/25 10:23:10;;;;;;;0.20;0.20;;;;;;;27.46;43.75;98703.31;5111536;28;20495;-59
2022/06/25 10:25:37;;;;;;;0.60;0.30;;;;;;;27.47;43.72;98702.06;5111567;28;20499;-59
2022/06/25 10:28:23;;;;;;;0.30;0.20;;;;;;;27.43;43.80;98694.53;5111492;28;20561;-58
2022/06/25 10:30:51;;;;;;;0.50;0.22;;;;;;;27.46;44.03;98700.50;5111706;28;20092;-59
2022/06/25 10:33:18;;;;;;;0.30;0.20;;;;;;;27.46;43.80;98695.66;5111595;28;20047;-59
2022/06/25 10:35:44;;;;;;;0.50;0.30;;;;;;;27.48;43.68;98696.00;5111500;28;20130;-58
2022/06/25 10:38:17;;;;;;;0.20;0.20;;;;;;;27.47;43.82;98694.44;5111120;28;20040;-59
2022/06/25 10:40:56;;;;;;;0.85;0.20;;;;;;;27.47;43.94;98685.22;5111340;28;20055;-59
2022/06/25 10:43:39;;;;;;;0.55;0.30;;;;;;;27.46;43.94;98673.19;5110490;28;20483;-59
2022/06/25 10:46:28;;;;;;;0.63;0.40;;;;;;;27.47;43.94;98669.16;5111369;28;20048;-58
2022/06/25 10:49:08;;;;;;;0.20;0.20;;;;;;;27.52;43.90;98667.84;5110982;28;20180;-59
2022/06/25 10:51:47;;;;;;;0.40;0.30;;;;;;;27.52;43.85;98659.41;5111168;28;20047;-58
2022/06/25 10:54:21;;;;;;;0.43;0.30;;;;;;;27.52;43.83;98654.59;5111203;28;20054;-58
2022/06/25 10:56:49;;;;;;;0.40;0.30;;;;;;;27.54;43.80;98651.34;5111067;28;20086;-58
2022/06/25 10:59:37;;;;;;;0.20;0.20;;;;;;;27.54;44.02;98651.34;5110841;28;20054;-58
2022/06/25 11:02:10;;;;;;;0.73;0.40;;;;;;;27.55;43.94;98647.28;5110994;28;20156;-58
2022/06/25 11:04:37;;;;;;;0.32;0.30;;;;;;;27.54;43.79;98642.91;5111142;28;20039;-58
2022/06/25 11:07:10;;;;;;;0.80;0.40;;;;;;;27.52;43.84;98637.72;5110989;28;20044;-59
2022/06/25 11:09:37;;;;;;;0.20;0.20;;;;;;;27.54;43.91;98640.88;5110764;28;20417;-58
2022/06/25 11:12:04;;;;;;;0.60;0.22;;;;;;;27.54;43.91;98640.09;5110819;28;20036;-59
2022/06/25 11:14:30;;;;;;;0.47;0.40;;;;;;;27.56;43.80;98637.63;5110760;28;20073;-58
2022/06/25 11:16:55;;;;;;;0.28;0.20;;;;;;;27.58;43.86;98643.63;5110760;28;20040;-59
2022/06/25 11:19:22;;;;;;;0.65;0.40;;;;;;;27.59;44.03;98639.56;5110270;28;20092;-58
2022/06/25 11:21:48;;;;;;;0.30;0.28;;;;;;;27.59;43.90;98623.50;5110695;28;20100;-59
2022/06/25 11:24:15;;;;;;;0.30;0.28;;;;;;;27.56;44.20;98623.59;5110659;28;20092;-59
2022/06/25 11:29:46;;;;;;;0.30;0.30;;;;;;;27.59;44.23;98619.91;5110400;28;20109;-59
2022/06/25 11:32:19;;;;;;;0.30;0.30;;;;;;;27.61;44.14;98617.44;5108902;28;20056;-59
2022/06/25 11:34:49;;;;;;;0.38;0.20;;;;;;;27.63;43.92;98614.97;5110438;28;20167;-59
2022/06/25 11:37:18;;;;;;;0.20;0.20;;;;;;;27.61;44.10;98617.44;5110558;28;20055;-59
2022/06/25 11:39:45;;;;;;;0.52;0.40;;;;;;;27.62;43.96;98614.19;5110242;28;20039;-59
2022/06/25 11:42:11;;;;;;;0.77;0.40;;;;;;;27.64;43.83;98610.94;5108349;28;20055;-59
2022/06/25 11:44:45;;;;;;;0.25;0.22;;;;;;;27.66;44.03;98608.50;5110354;28;20035;-59